• Join FlightAware (Why Join?)
  • Login
  • US Flag 
11:20AM EDT


 

Airport Tracker/Info


-or-


 

Live Flight TrackerFlight Track Log ✈ F-GSPR ✈ 26-Jul-2013 ✈ LFPG / CDG - DNAA / ABV

Flight Track Log - Related Links

Times and Time Zones

All times are in EDT time to prevent confusion due to time zone crossing. See the F-GSPR flight status page for this flight to view local times or setup timezone preferences in your user account.

Time Position Orientation Groundspeed Altitude Reporting Facility
EDT Latitude Longitude Course Direction KTS MPH feet Rate Location/Type
06:11AM 48.9990 2.5670 264° West 12 14  Level FlightAware
06:11AM 48.9990 2.5650 270° West 16 18 180 Level FlightAware
06:11AM 48.9990 2.5640 270° West 17 20 180 Level FlightAware
06:14AM 48.7252 2.6165 173° South  Level Estimated
06:15AM 48.6079 2.6388 173° South  Level Estimated
06:15AM 48.9970 2.5580 173° South 4 5  Level FlightAware
06:17AM 48.7819 2.5993 173° South  Level Estimated
06:17AM 48.9960 2.5580 173° South 7 8  Level FlightAware
06:17AM 48.9960 2.5590 90° East 5 6 900 Level FlightAware
06:18AM 48.9960 2.5610 90° East 39 45 960 Level FlightAware
06:18AM 48.9970 2.5730 83° East 61 70 1,380 Level FlightAware
06:19AM 49.0000 2.6380 86° East 183 211 1,700 2,520 Climbing FlightAware
06:19AM 49.0010 2.6570 85° East 181 208 2,200 1,680 Climbing FlightAware
06:20AM 49.0030 2.6980 86° East 188 216 3,000 1,500 Climbing FlightAware
06:20AM 49.0050 2.7350 85° East 192 221 3,700 1,020 Climbing FlightAware
06:21AM 49.0070 2.7690 85° East 221 254 3,900 600 Climbing FlightAware
06:21AM 49.0050 2.8380 93° East 259 298 4,400 780 Climbing FlightAware
06:22AM 48.9970 2.8870 104° East 283 326 4,800 1,380 Climbing FlightAware
06:22AM 48.9820 2.9420 113° Southeast 283 326 5,700 1,680 Climbing FlightAware
06:22AM 48.9690 2.9540 149° Southeast 278 320 6,000 1,740 Climbing FlightAware
06:23AM 48.9550 2.9570 172° South 268 308 6,400 1,860 Climbing FlightAware
06:23AM 48.9250 2.9250 215° Southwest 260 299 7,400 1,920 Climbing FlightAware
06:24AM 48.9100 2.8830 241° Southwest 262 302 8,300 1,980 Climbing FlightAware
06:24AM 48.9030 2.8640 241° Southwest 264 304 8,700 1,980 Climbing FlightAware
06:24AM 48.8840 2.8110 241° Southwest 265 305 9,700 1,560 Climbing FlightAware
06:25AM 48.8600 2.7490 240° Southwest 285 328 10,500 1,020 Climbing FlightAware
06:26AM 48.8320 2.6690 242° Southwest 319 367 11,100 1,620 Climbing FlightAware
06:26AM 48.8010 2.5820 242° Southwest 319 367 12,900 2,580 Climbing FlightAware
06:27AM 48.7720 2.5020 241° Southwest 318 366 14,800 2,520 Climbing FlightAware
06:28AM 48.7480 2.4350 242° Southwest 324 373 16,100 2,100 Climbing FlightAware
06:28AM 48.7040 2.3630 227° Southwest 333 383 17,500 1,920 Climbing FlightAware
06:29AM 48.6440 2.3100 210° Southwest 343 395 18,900 1,860 Climbing FlightAware
06:30AM 48.5780 2.2530 210° Southwest 350 403 20,400 1,320 Climbing FlightAware
06:31AM 48.5130 2.2270 195° South 380 437 20,900 720 Climbing FlightAware
06:31AM 48.4390 2.2310 178° South 409 471 21,400 1,080 Climbing FlightAware
06:32AM 48.3510 2.2390 177° South 422 486 22,500 1,560 Climbing FlightAware
06:33AM 48.2700 2.2550 173° South 432 497 23,600 1,500 Climbing FlightAware
06:33AM 48.1810 2.2780 170° South 441 507 24,700 1,380 Climbing FlightAware
06:34AM 48.1010 2.3000 170° South 446 513 25,600 1,380 Climbing FlightAware
06:35AM 48.0100 2.3240 170° South 451 519 26,700 1,320 Climbing FlightAware
06:35AM 47.9310 2.3450 170° South 456 525 27,500 1,200 Climbing FlightAware
06:36AM 47.8590 2.3640 170° South 460 529 28,200 1,200 Climbing FlightAware
06:37AM 47.7670 2.3880 170° South 465 535 29,100 1,140 Climbing FlightAware
06:37AM 47.6810 2.4110 170° South 469 540 29,800 960 Climbing FlightAware
06:38AM 47.6140 2.4280 170° South 472 543 30,400 1,680 Climbing FlightAware
06:39AM 47.5090 2.4550 170° South 458 527 32,100 1,560 Climbing FlightAware
06:40AM 47.3900 2.4850 170° South 460 529 33,100 1,200 Climbing FlightAware
06:40AM 47.3090 2.5060 170° South 455 524 34,100 1,320 Climbing FlightAware
06:41AM 47.2380 2.5240 170° South 452 520 34,900 600 Climbing FlightAware
06:42AM 47.1570 2.5450 170° South 451 519 35,000 60 Climbing FlightAware
06:42AM 47.0610 2.5690 170° South 443 510 35,000  Level FlightAware
06:43AM 46.9670 2.5930 170° South 35,000  Level FlightAware
06:44AM 46.8720 2.6170 170° South 457 526 35,000  Level FlightAware
06:45AM 46.7890 2.6380 170° South 456 525 35,000  Level FlightAware
06:45AM 46.6960 2.6610 170° South 456 525 35,000  Level FlightAware
06:46AM 46.6120 2.6820 170° South 457 526 35,000  Level FlightAware
06:47AM 46.5210 2.7040 171° South 457 526 35,000  Level FlightAware
06:47AM 46.4470 2.7230 170° South 458 527 35,000  Level FlightAware
06:48AM 46.3630 2.7430 171° South 459 528 35,000  Level FlightAware
06:49AM 46.2580 2.7690 170° South 460 529 35,000  Level FlightAware
06:49AM 46.1720 2.8020 165° South 465 535 35,000  Level FlightAware
06:50AM 46.0970 2.8350 163° South 466 536 35,000  Level FlightAware
06:51AM 46.0170 2.8710 163° South 468 539 35,000  Level FlightAware
06:51AM 45.9460 2.9020 163° South 466 536 35,000  Level FlightAware
06:52AM 45.8670 2.9370 163° South 458 527 35,000  Level FlightAware
06:53AM 45.7740 2.9780 163° South 466 536 35,000  Level FlightAware
06:54AM 45.5930 3.0570 163° South 469 540 35,000  Level FlightAware
06:55AM 45.5100 3.0930 163° South 470 541 35,000  Level FlightAware
06:55AM 45.4260 3.1280 164° South 470 541 35,000  Level FlightAware
06:56AM 45.3330 3.1680 163° South 472 543 35,000  Level FlightAware
06:57AM 45.2470 3.2030 164° South 472 543 35,000  Level FlightAware
06:58AM 45.1570 3.2400 164° South 474 545 35,000  Level FlightAware
06:58AM 45.0640 3.2790 163° South 476 548 35,000  Level FlightAware
06:59AM 44.9800 3.3200 161° South 476 548 35,000  Level FlightAware
07:00AM 44.8920 3.3640 160° South 477 549 35,000  Level FlightAware
07:00AM 44.8010 3.4070 161° South 476 548 35,000  Level FlightAware
07:01AM 44.7310 3.4400 161° South 477 549 35,000  Level FlightAware
07:02AM 44.6150 3.4950 161° South 478 550 35,000  Level FlightAware
07:03AM 44.5260 3.5360 162° South 480 552 35,000  Level FlightAware
07:03AM 44.4490 3.5720 162° South 478 550 35,000  Level FlightAware
07:04AM 44.3570 3.6160 161° South 479 551 35,000  Level FlightAware
07:05AM 44.2720 3.6560 161° South 478 550 35,000  Level FlightAware
07:05AM 44.1950 3.6920 161° South 476 548 35,000  Level FlightAware
07:06AM 44.0980 3.7370 162° South 477 549 35,000  Level FlightAware
07:07AM 44.0110 3.7780 161° South 479 551 35,000  Level FlightAware
07:07AM 43.9180 3.8220 161° South 479 551 35,000  Level FlightAware
07:08AM 43.8470 3.8550 161° South 481 554 35,000  Level FlightAware
07:09AM 43.7670 3.8920 162° South 481 554 35,000  Level FlightAware
07:09AM 43.6690 3.9380 161° South 481 554 35,000  Level FlightAware
07:10AM 43.6000 3.9690 162° South 478 550 35,000  Level FlightAware
07:11AM 43.5090 4.0160 159° South 477 549 35,000  Level FlightAware
07:11AM 43.4420 4.0450 163° South 474 545 35,000  Level FlightAware
07:12AM 43.3430 4.0890 162° South 477 549 35,000  Level FlightAware
07:13AM 43.2600 4.1480 153° Southeast 480 552 35,000  Level FlightAware
07:13AM 43.1900 4.1970 153° Southeast 480 552 35,000  Level FlightAware
07:14AM 43.1260 4.2430 152° Southeast 480 552 35,000  Level FlightAware
07:15AM 43.0120 4.3240 153° Southeast 483 556 35,000  Level FlightAware
07:16AM 42.9250 4.3860 152° Southeast 483 556 35,000  Level FlightAware
07:16AM 42.8440 4.4430 153° Southeast 485 558 35,000  Level FlightAware
07:17AM 42.7140 4.5330 153° Southeast 487 560 35,000  Level FlightAware
07:18AM 42.6500 4.5800 152° Southeast 487 560 35,000  Level FlightAware
07:19AM 42.5590 4.6410 154° Southeast 489 563 35,000  Level FlightAware
07:20AM 42.4240 4.7350 153° Southeast 491 565 35,000  Level FlightAware
07:20AM 42.3620 4.7780 153° Southeast 491 565 35,000  Level FlightAware
07:21AM 42.2560 4.8430 156° South 487 560 35,000  Level FlightAware
07:22AM 42.1500 4.9150 153° Southeast 488 562 35,000  Level FlightAware
07:23AM 42.0510 4.9800 154° Southeast 488 562 35,000  Level FlightAware
07:24AM 41.9230 5.0460 159° South 481 554 35,000  Level FlightAware
07:24AM 41.8380 5.0770 165° South 479 551 35,000  Level FlightAware
07:25AM 41.7530 5.1100 164° South 479 551 35,000  Level FlightAware
07:26AM 41.6660 5.1460 163° South 479 551 35,000  Level FlightAware
07:26AM 41.5860 5.1790 163° South 479 551 35,000  Level FlightAware
07:27AM 41.5010 5.2100 165° South 478 550 35,000  Level FlightAware
07:28AM 41.4120 5.2420 165° South 476 548 35,000  Level FlightAware
07:29AM 41.2860 5.2880 165° South 473 544 35,000  Level FlightAware
07:29AM 41.2080 5.3160 165° South 470 541 35,000  Level FlightAware
07:30AM 41.1210 5.3490 164° South 469 540 35,000  Level FlightAware
07:31AM 41.0340 5.3790 165° South 468 539 35,000  Level FlightAware
07:32AM 40.9340 5.4160 164° South 468 539 35,000  Level FlightAware
07:32AM 40.8710 5.4400 164° South 468 539 35,000  Level FlightAware
07:33AM 40.7240 5.4910 165° South 470 541 35,000  Level FlightAware
07:34AM 40.6600 5.5150 164° South 470 541 35,000  Level FlightAware
07:35AM 40.5750 5.5470 164° South 470 541 35,000  Level FlightAware
07:35AM 40.5110 5.5720 163° South 470 541 35,000  Level FlightAware
07:36AM 40.4260 5.6040 164° South 470 541 35,000  Level FlightAware
07:37AM 40.2770 5.6480 167° South 467 537 35,000  Level FlightAware
07:38AM 40.1930 5.6770 165° South 469 540 35,000  Level FlightAware
07:38AM 40.1100 5.7070 165° South 463 533 35,000  Level FlightAware
07:39AM 40.0220 5.7370 165° South 464 534 35,000  Level FlightAware
07:40AM 39.9380 5.7670 165° South 464 534 35,000  Level FlightAware
07:40AM 39.8440 5.7990 165° South 464 534 35,000  Level FlightAware
07:41AM 39.7570 5.8290 165° South 466 536 35,000  Level FlightAware
07:42AM 39.6670 5.8600 165° South 467 537 35,000  Level FlightAware
07:42AM 39.5790 5.8910 165° South 468 539 35,000  Level FlightAware
07:43AM 39.4810 5.9240 165° South 469 540 35,000  Level FlightAware
07:44AM 39.3970 5.9530 165° South 479 551 35,000  Level FlightAware
07:44AM 39.3090 5.9830 165° South 480 552 35,000  Level FlightAware
07:45AM 39.2240 6.0120 165° South 482 555 35,000  Level FlightAware
07:46AM 39.1320 6.0380 168° South 472 543 35,000  Level FlightAware
07:47AM 39.0350 6.0600 170° South 473 544 35,000  Level FlightAware
07:47AM 38.9360 6.0820 170° South 475 547 35,000  Level FlightAware
07:48AM 38.8470 6.1000 171° South 484 557 35,000  Level FlightAware
07:49AM 38.7580 6.1180 171° South 485 558 35,000  Level FlightAware
07:49AM 38.6570 6.1390 171° South 485 558 35,000  Level FlightAware
07:50AM 38.5420 6.1640 170° South 485 558 35,000  Level FlightAware
07:51AM 38.4310 6.1860 171° South 486 559 35,000  Level FlightAware
07:52AM 38.3400 6.2070 170° South 486 559 35,000  Level FlightAware
07:53AM 38.2220 6.2280 172° South 35,000  Level FlightAware
07:54AM 38.1220 6.2490 171° South 488 562 35,000  Level FlightAware
07:54AM 38.0320 6.2690 170° South 488 562 35,000  Level FlightAware
07:55AM 37.9640 6.2850 169° South 488 562 35,000  Level FlightAware
07:56AM 37.8730 6.3050 170° South 488 562 35,000  Level FlightAware
07:56AM 37.8050 6.3200 170° South 488 562 35,000  Level FlightAware
07:57AM 37.7140 6.3400 170° South 488 562 35,000  Level FlightAware
07:58AM 37.6460 6.3550 170° South 488 562 35,000  Level FlightAware
07:59AM 37.5530 6.3760 170° South 488 562 35,000  Level FlightAware
07:59AM 37.4820 6.3920 170° South 488 562 35,000  Level FlightAware
08:01AM 37.3340 6.4250 170° South 488 562 35,000  Level FlightAware
08:01AM 37.2640 6.4400 170° South 488 562 35,000  Level FlightAware
08:02AM 37.1510 6.4650 170° South 488 562 35,000  Level FlightAware
08:03AM 37.0580 6.4860 170° South 488 562 35,000  Level FlightAware
08:06AM 36.7501 6.4970 178° South  Level Estimated
08:07AM 36.6301 6.5012 178° South  Level Estimated
08:08AM 36.5101 6.5054 178° South  Level Estimated
08:09AM 36.3902 6.5096 178° South  Level Estimated
08:10AM 36.2702 6.5138 178° South  Level Estimated
08:11AM 36.1502 6.5180 178° South  Level Estimated
08:12AM 36.0303 6.5222 178° South  Level Estimated
08:13AM 35.9103 6.5264 178° South  Level Estimated
08:14AM 35.7903 6.5305 178° South  Level Estimated
08:15AM 35.6703 6.5347 178° South  Level Estimated
08:16AM 35.5504 6.5388 178° South  Level Estimated
08:17AM 35.4304 6.5429 178° South  Level Estimated
08:18AM 35.3104 6.5470 178° South  Level Estimated
08:19AM 35.1905 6.5511 178° South  Level Estimated
08:20AM 35.0705 6.5552 178° South  Level Estimated
08:21AM 34.9505 6.5592 178° South  Level Estimated
08:22AM 34.8306 6.5633 178° South  Level Estimated
08:23AM 34.7106 6.5673 178° South  Level Estimated
08:24AM 34.5906 6.5714 178° South  Level Estimated
08:25AM 34.4706 6.5754 178° South  Level Estimated
08:26AM 34.3507 6.5794 178° South  Level Estimated
08:27AM 34.2307 6.5834 178° South  Level Estimated
08:28AM 34.1107 6.5874 178° South  Level Estimated
08:29AM 33.9907 6.5913 178° South  Level Estimated
08:30AM 33.8708 6.5953 178° South  Level Estimated
08:31AM 33.7508 6.5992 178° South  Level Estimated
08:32AM 33.6308 6.6032 178° South  Level Estimated
08:33AM 33.5108 6.6071 178° South  Level Estimated
08:34AM 33.3908 6.6110 178° South  Level Estimated
08:35AM 33.2709 6.6150 178° South  Level Estimated
08:36AM 33.1509 6.6189 178° South  Level Estimated
08:37AM 33.0309 6.6227 178° South  Level Estimated
08:38AM 32.9109 6.6266 178° South  Level Estimated
08:39AM 32.7909 6.6305 178° South  Level Estimated
08:40AM 32.6710 6.6343 178° South  Level Estimated
08:41AM 32.5510 6.6382 178° South  Level Estimated
08:42AM 32.4310 6.6420 178° South  Level Estimated
08:43AM 32.3110 6.6458 178° South  Level Estimated
08:44AM 32.1910 6.6496 178° South  Level Estimated
08:45AM 32.0711 6.6534 178° South  Level Estimated
08:46AM 31.9511 6.6572 178° South  Level Estimated
08:47AM 31.8311 6.6610 178° South  Level Estimated
08:48AM 31.7111 6.6648 178° South  Level Estimated
08:49AM 31.5911 6.6685 178° South  Level Estimated
08:50AM 31.4712 6.6723 178° South  Level Estimated
08:51AM 31.3512 6.6760 178° South  Level Estimated
08:52AM 31.2312 6.6798 178° South  Level Estimated
08:53AM 31.1112 6.6835 178° South  Level Estimated
08:54AM 30.9912 6.6872 178° South  Level Estimated
08:55AM 30.8713 6.6909 178° South  Level Estimated
08:56AM 30.7513 6.6946 178° South  Level Estimated
08:57AM 30.6313 6.6983 178° South  Level Estimated
08:58AM 30.5113 6.7020 178° South  Level Estimated
08:59AM 30.3913 6.7057 178° South  Level Estimated
09:00AM 30.2714 6.7093 178° South  Level Estimated
09:01AM 30.1514 6.7130 178° South  Level Estimated
09:02AM 30.0314 6.7166 178° South  Level Estimated
09:03AM 29.9114 6.7203 178° South  Level Estimated
09:04AM 29.7914 6.7239 178° South  Level Estimated
09:05AM 29.6715 6.7275 178° South  Level Estimated
09:06AM 29.5515 6.7311 179° South  Level Estimated
09:07AM 29.4315 6.7347 179° South  Level Estimated
09:08AM 29.3115 6.7383 179° South  Level Estimated
09:09AM 29.1915 6.7419 179° South  Level Estimated
09:10AM 29.0716 6.7455 179° South  Level Estimated
09:11AM 28.9516 6.7491 179° South  Level Estimated
09:12AM 28.8316 6.7526 179° South  Level Estimated
09:13AM 28.7116 6.7562 179° South  Level Estimated
09:14AM 28.5916 6.7597 179° South  Level Estimated
09:15AM 28.4717 6.7632 179° South  Level Estimated
09:16AM 28.3517 6.7668 179° South  Level Estimated
09:17AM 28.2317 6.7703 179° South  Level Estimated
09:18AM 28.1117 6.7738 179° South  Level Estimated
09:19AM 27.9917 6.7773 179° South  Level Estimated
09:20AM 27.8718 6.7808 179° South  Level Estimated
09:21AM 27.7518 6.7843 179° South  Level Estimated
09:22AM 27.6318 6.7877 179° South  Level Estimated
09:23AM 27.5118 6.7912 179° South  Level Estimated
09:24AM 27.3918 6.7947 179° South  Level Estimated
09:25AM 27.2719 6.7981 179° South  Level Estimated
09:26AM 27.1519 6.8016 179° South  Level Estimated
09:27AM 27.0319 6.8050 179° South  Level Estimated
09:28AM 26.9119 6.8085 179° South  Level Estimated
09:29AM 26.7919 6.8119 179° South  Level Estimated
09:30AM 26.6720 6.8153 179° South  Level Estimated
09:31AM 26.5520 6.8187 179° South  Level Estimated
09:32AM 26.4320 6.8221 179° South  Level Estimated
09:33AM 26.3120 6.8255 179° South  Level Estimated
09:34AM 26.1920 6.8289 179° South  Level Estimated
09:35AM 26.0721 6.8323 179° South  Level Estimated
09:36AM 25.9521 6.8357 179° South  Level Estimated
09:37AM 25.8321 6.8390 179° South  Level Estimated
09:38AM 25.7121 6.8424 179° South  Level Estimated
09:39AM 25.5921 6.8458 179° South  Level Estimated
09:40AM 25.4722 6.8491 179° South  Level Estimated
09:41AM 25.3522 6.8525 179° South  Level Estimated
09:42AM 25.2322 6.8558 179° South  Level Estimated
09:43AM 25.1122 6.8591 179° South  Level Estimated
09:44AM 24.9922 6.8625 179° South  Level Estimated
09:45AM 24.8723 6.8658 179° South  Level Estimated
09:46AM 24.7523 6.8691 179° South  Level Estimated
09:47AM 24.6323 6.8724 179° South  Level Estimated
09:48AM 24.5123 6.8757 179° South  Level Estimated
09:49AM 24.3923 6.8790 179° South  Level Estimated
09:50AM 24.2724 6.8823 179° South  Level Estimated
09:51AM 24.1524 6.8855 179° South  Level Estimated
09:52AM 24.0324 6.8888 179° South  Level Estimated
09:53AM 23.9124 6.8921 179° South  Level Estimated
09:54AM 23.7924 6.8953 179° South  Level Estimated
09:55AM 23.6725 6.8986 179° South  Level Estimated
09:56AM 23.5525 6.9019 179° South  Level Estimated
09:57AM 23.4325 6.9051 179° South  Level Estimated
09:58AM 23.3125 6.9083 179° South  Level Estimated
09:59AM 23.1925 6.9116 179° South  Level Estimated
10:00AM 23.0726 6.9148 179° South  Level Estimated
10:01AM 22.9526 6.9180 179° South  Level Estimated
10:02AM 22.8326 6.9212 179° South  Level Estimated
10:03AM 22.7126 6.9244 179° South  Level Estimated
10:04AM 22.5926 6.9276 179° South  Level Estimated
10:05AM 22.4727 6.9308 179° South  Level Estimated
10:06AM 22.3527 6.9340 179° South  Level Estimated
10:07AM 22.2327 6.9372 179° South  Level Estimated
10:08AM 22.1127 6.9404 179° South  Level Estimated
10:09AM 21.9927 6.9436 179° South  Level Estimated
10:10AM 21.8728 6.9467 179° South  Level Estimated
10:11AM 21.7528 6.9499 179° South  Level Estimated
10:12AM 21.6328 6.9531 179° South  Level Estimated
10:13AM 21.5128 6.9562 179° South  Level Estimated
10:14AM 21.3928 6.9594 179° South  Level Estimated
10:15AM 21.2729 6.9625 179° South  Level Estimated
10:16AM 21.1529 6.9656 179° South  Level Estimated
10:17AM 21.0329 6.9688 179° South  Level Estimated
10:18AM 20.9129 6.9719 179° South  Level Estimated
10:19AM 20.7929 6.9750 179° South  Level Estimated
10:20AM 20.6730 6.9781 179° South  Level Estimated
10:21AM 20.5530 6.9812 179° South  Level Estimated
10:22AM 20.4330 6.9844 179° South  Level Estimated
10:23AM 20.3130 6.9875 179° South  Level Estimated
10:24AM 20.1930 6.9906 179° South  Level Estimated
10:25AM 20.0730 6.9936 179° South  Level Estimated
10:26AM 19.9530 6.9967 179° South  Level Estimated
10:27AM 19.8330 6.9998 179° South  Level Estimated
10:28AM 19.7131 7.0029 179° South  Level Estimated
10:29AM 19.5931 7.0060 179° South  Level Estimated
10:30AM 19.4731 7.0091 179° South  Level Estimated
10:31AM 19.3531 7.0121 179° South  Level Estimated
10:32AM 19.2335 7.0152 179° South  Level Estimated
10:33AM 19.1138 7.0182 179° South  Level Estimated
10:34AM 18.9942 7.0213 179° South  Level Estimated
10:35AM 18.8746 7.0243 179° South  Level Estimated
10:36AM 18.7549 7.0273 179° South  Level Estimated
10:37AM 18.6353 7.0304 179° South  Level Estimated
10:38AM 18.5157 7.0334 179° South  Level Estimated
10:39AM 18.3960 7.0364 179° South  Level Estimated
10:40AM 18.2764 7.0395 179° South  Level Estimated
10:41AM 18.1568 7.0425 179° South  Level Estimated
10:42AM 18.0372 7.0455 179° South  Level Estimated
10:43AM 17.9175 7.0485 179° South  Level Estimated
10:44AM 17.7979 7.0515 179° South  Level Estimated
10:45AM 17.6783 7.0545 179° South  Level Estimated
10:46AM 17.5586 7.0575 179° South  Level Estimated
10:47AM 17.4390 7.0605 179° South  Level Estimated
10:48AM 17.3194 7.0634 179° South  Level Estimated
10:49AM 17.1998 7.0664 179° South  Level Estimated
10:50AM 17.0801 7.0694 179° South  Level Estimated
10:51AM 16.9605 7.0724 179° South  Level Estimated
10:52AM 16.8409 7.0753 179° South  Level Estimated
10:53AM 16.7212 7.0783 179° South  Level Estimated
10:54AM 16.6016 7.0813 179° South  Level Estimated
10:55AM 16.4820 7.0842 179° South  Level Estimated
10:56AM 16.3623 7.0872 179° South  Level Estimated
10:57AM 16.2427 7.0901 179° South  Level Estimated
10:58AM 16.1231 7.0931 179° South  Level Estimated
10:59AM 16.0035 7.0960 179° South  Level Estimated
11:00AM 15.8838 7.0990 179° South  Level Estimated
11:01AM 15.7642 7.1019 179° South  Level Estimated
11:02AM 15.6446 7.1049 179° South  Level Estimated
11:03AM 15.5249 7.1078 179° South  Level Estimated
11:04AM 15.4053 7.1107 179° South  Level Estimated
11:05AM 15.2857 7.1136 179° South  Level Estimated
11:06AM 15.1660 7.1166 179° South  Level Estimated
11:07AM 15.0464 7.1195 179° South  Level Estimated
11:08AM 14.9268 7.1224 179° South  Level Estimated
11:09AM 14.8071 7.1253 179° South  Level Estimated
11:10AM 14.6875 7.1282 179° South  Level Estimated
11:11AM 14.5679 7.1311 179° South  Level Estimated
11:12AM 14.4483 7.1340 179° South  Level Estimated
11:13AM 14.3286 7.1369 179° South  Level Estimated
11:14AM 14.2090 7.1398 179° South  Level Estimated
11:15AM 14.0894 7.1427 179° South  Level Estimated
11:16AM 13.9697 7.1456 179° South  Level Estimated
11:17AM 13.8501 7.1485 179° South  Level Estimated
11:18AM 13.7305 7.1514 179° South  Level Estimated
11:19AM 13.6109 7.1543 179° South  Level Estimated
11:20AM 13.4912 7.1571 179° South  Level Estimated
11:21AM 13.3716 7.1600 179° South  Level Estimated
11:22AM 13.2520 7.1629 179° South  Level Estimated
11:23AM 13.1323 7.1657 179° South  Level Estimated
11:24AM 13.0127 7.1686 179° South  Level Estimated
11:25AM 12.8931 7.1715 179° South  Level Estimated
11:26AM 12.7734 7.1743 179° South  Level Estimated
11:27AM 12.6538 7.1772 179° South  Level Estimated
11:28AM 12.5342 7.1800 179° South  Level Estimated
11:29AM 12.4145 7.1829 179° South  Level Estimated
11:30AM 12.2949 7.1858 179° South  Level Estimated
11:31AM 12.1753 7.1886 179° South  Level Estimated
11:32AM 12.0557 7.1915 179° South  Level Estimated
11:33AM 11.9360 7.1943 179° South  Level Estimated
11:34AM 11.8164 7.1971 179° South  Level Estimated
11:35AM 11.6968 7.2000 179° South  Level Estimated
11:36AM 11.5771 7.2028 179° South  Level Estimated
11:37AM 11.4575 7.2056 179° South  Level Estimated
11:38AM 11.3379 7.2085 179° South  Level Estimated
11:39AM 11.2183 7.2113 179° South  Level Estimated
11:40AM 11.0986 7.2141 179° South  Level Estimated
11:41AM 10.9790 7.2169 179° South  Level Estimated
11:42AM 10.8594 7.2198 179° South  Level Estimated
11:43AM 10.7401 7.2226 179° South  Level Estimated
11:44AM 10.6208 7.2254 179° South  Level Estimated
11:45AM 10.5015 7.2282 179° South  Level Estimated
11:46AM 10.3822 7.2310 179° South  Level Estimated
11:47AM 10.2630 7.2338 179° South  Level Estimated
11:48AM 10.1437 7.2366 179° South  Level Estimated
11:49AM 10.0244 7.2394 179° South  Level Estimated